createdAt,value
2022-08-17T00:01:51.467Z,32.70
2022-08-17T00:04:20.094Z,32.70
2022-08-17T00:06:49.353Z,32.80
2022-08-17T00:09:18.303Z,32.70
2022-08-17T00:12:34.754Z,32.70
2022-08-17T00:14:36.987Z,32.70
2022-08-17T00:17:06.425Z,32.70
2022-08-17T00:19:34.081Z,32.70
2022-08-17T00:22:34.266Z,32.70
2022-08-17T00:24:50.633Z,32.70
2022-08-17T00:27:18.730Z,32.70
2022-08-17T00:29:46.239Z,32.70
2022-08-17T00:33:12.286Z,32.70
2022-08-17T00:35:08.243Z,32.70
2022-08-17T00:37:35.593Z,32.70
2022-08-17T00:40:04.246Z,32.60
2022-08-17T00:42:31.493Z,32.60
2022-08-17T00:44:59.096Z,32.60
2022-08-17T00:47:26.485Z,32.60
2022-08-17T00:49:54.051Z,32.60
2022-08-17T00:52:30.356Z,32.60
2022-08-17T00:54:58.382Z,32.60
2022-08-17T00:57:54.746Z,32.60
2022-08-17T01:00:28.950Z,32.50
2022-08-17T01:03:25.400Z,32.60
2022-08-17T01:05:57.901Z,32.60
2022-08-17T01:08:29.618Z,32.60
2022-08-17T01:11:04.157Z,32.50
2022-08-17T01:13:41.416Z,32.50
2022-08-17T01:16:23.134Z,32.50
2022-08-17T01:18:54.958Z,32.50
2022-08-17T01:21:43.618Z,32.40
2022-08-17T01:24:11.288Z,32.40
2022-08-17T01:26:42.051Z,32.40
2022-08-17T01:29:10.366Z,32.40
2022-08-17T01:31:54.087Z,32.40
2022-08-17T01:34:21.782Z,32.50
2022-08-17T01:36:50.356Z,32.40
2022-08-17T01:39:25.855Z,32.40
2022-08-17T01:42:04.634Z,32.40
2022-08-17T01:44:31.709Z,32.40
2022-08-17T01:46:58.668Z,32.40
2022-08-17T01:49:28.075Z,32.40
2022-08-17T01:51:55.913Z,32.40
2022-08-17T01:54:25.106Z,32.30
2022-08-17T01:56:52.985Z,32.40
2022-08-17T01:59:20.885Z,32.40
2022-08-17T02:01:48.309Z,32.40
2022-08-17T02:04:15.629Z,32.40
2022-08-17T02:06:54.091Z,32.40
2022-08-17T02:09:29.961Z,32.40
2022-08-17T02:12:00.034Z,32.40
2022-08-17T02:14:47.110Z,32.30
2022-08-17T02:17:14.096Z,32.30
2022-08-17T02:19:41.253Z,32.30
2022-08-17T02:22:09.005Z,32.30
2022-08-17T02:24:58.485Z,32.30
2022-08-17T02:27:26.079Z,32.30
2022-08-17T02:29:52.988Z,32.30
2022-08-17T02:32:27.390Z,32.30
2022-08-17T02:34:59.817Z,32.30
2022-08-17T02:37:29.855Z,32.30
2022-08-17T02:39:58.772Z,32.30
2022-08-17T02:42:44.522Z,32.30
2022-08-17T02:45:19.455Z,32.30
2022-08-17T02:47:46.958Z,32.30
2022-08-17T02:50:17.772Z,32.30
2022-08-17T02:52:53.249Z,32.30
2022-08-17T02:55:34.338Z,32.20
2022-08-17T02:58:03.752Z,32.20
2022-08-17T03:00:41.017Z,32.20
2022-08-17T03:03:10.965Z,32.10
2022-08-17T03:05:39.495Z,32.10
2022-08-17T03:08:07.571Z,32.00
2022-08-17T03:10:40.928Z,32.10
2022-08-17T03:13:08.853Z,32.00
2022-08-17T03:15:36.461Z,32.00
2022-08-17T03:18:07.932Z,31.90
2022-08-17T03:20:46.316Z,31.80
2022-08-17T03:23:13.245Z,31.80
2022-08-17T03:25:44.080Z,31.80
2022-08-17T03:28:13.513Z,31.70
2022-08-17T03:30:40.650Z,31.70
2022-08-17T03:33:12.356Z,31.70
2022-08-17T03:35:41.404Z,31.70
2022-08-17T03:38:12.582Z,31.70
2022-08-17T03:40:57.941Z,31.60
2022-08-17T03:43:29.666Z,31.60
2022-08-17T03:46:34.266Z,31.60
2022-08-17T03:49:24.999Z,31.50
2022-08-17T03:52:12.336Z,31.50
2022-08-17T03:54:59.381Z,31.40
2022-08-17T03:57:27.880Z,31.40
2022-08-17T03:59:55.773Z,31.40
2022-08-17T04:02:28.638Z,31.40
2022-08-17T04:04:55.885Z,31.40
2022-08-17T04:07:28.699Z,31.40
2022-08-17T04:09:56.040Z,31.40
2022-08-17T04:12:26.175Z,31.30
2022-08-17T04:14:54.880Z,31.30
2022-08-17T04:17:29.117Z,31.30
2022-08-17T04:19:57.241Z,31.30
2022-08-17T04:22:32.344Z,31.30
2022-08-17T04:25:18.059Z,31.30
2022-08-17T04:27:45.222Z,31.30
2022-08-17T04:30:13.085Z,31.30
2022-08-17T04:33:07.394Z,31.20
2022-08-17T04:35:47.557Z,31.20
2022-08-17T04:38:18.392Z,31.10
2022-08-17T04:41:04.646Z,31.10
2022-08-17T04:43:34.054Z,31.10
2022-08-17T04:46:17.639Z,31.10
2022-08-17T04:48:54.364Z,31.10
2022-08-17T04:51:33.049Z,31.10
2022-08-17T04:54:11.416Z,31.10
2022-08-17T04:56:39.401Z,31.00
2022-08-17T04:59:12.272Z,31.00
2022-08-17T05:01:43.882Z,31.00
2022-08-17T05:04:33.836Z,31.00
2022-08-17T05:07:03.141Z,31.00
2022-08-17T05:09:30.158Z,31.00
2022-08-17T05:12:02.334Z,31.00
2022-08-17T05:14:33.046Z,31.00
2022-08-17T05:17:01.503Z,31.00
2022-08-17T05:19:31.016Z,30.90
2022-08-17T05:22:01.156Z,30.90
2022-08-17T05:24:42.578Z,30.90
2022-08-17T05:27:18.981Z,31.00
2022-08-17T05:29:46.229Z,30.90
2022-08-17T05:32:38.642Z,30.90
2022-08-17T05:35:01.545Z,31.00
2022-08-17T05:37:28.609Z,30.90
2022-08-17T05:39:55.699Z,30.90
2022-08-17T05:42:23.208Z,30.90
2022-08-17T05:44:50.224Z,30.90
2022-08-17T05:47:18.311Z,30.90
2022-08-17T05:49:45.360Z,30.90
2022-08-17T05:52:54.273Z,30.90
2022-08-17T05:55:42.522Z,31.00
2022-08-17T05:58:21.087Z,31.00
2022-08-17T06:01:10.604Z,31.00
2022-08-17T06:04:01.100Z,31.00
2022-08-17T06:06:40.956Z,31.00
2022-08-17T06:09:26.639Z,31.00
2022-08-17T06:13:12.378Z,31.00
2022-08-17T06:16:33.594Z,31.00
2022-08-17T06:19:01.125Z,30.90
2022-08-17T06:21:38.009Z,31.00
2022-08-17T06:24:42.468Z,31.00
2022-08-17T06:27:37.001Z,31.00
2022-08-17T06:30:15.978Z,30.90
2022-08-17T06:32:47.468Z,30.90
2022-08-17T06:35:34.556Z,30.90
2022-08-17T06:38:37.024Z,30.90
2022-08-17T06:41:38.128Z,30.80
2022-08-17T06:44:53.396Z,30.90
2022-08-17T06:47:33.969Z,30.90
2022-08-17T06:50:30.932Z,30.90
2022-08-17T06:53:22.578Z,30.80
2022-08-17T06:56:00.305Z,30.80
2022-08-17T06:58:31.323Z,30.80
2022-08-17T07:01:24.252Z,30.80
2022-08-17T07:04:12.634Z,30.90
2022-08-17T07:06:52.410Z,30.90
2022-08-17T07:09:31.259Z,31.00
2022-08-17T07:12:38.401Z,31.00
2022-08-17T07:15:25.369Z,31.00
2022-08-17T07:17:52.486Z,31.00
2022-08-17T07:20:22.434Z,31.10
2022-08-17T07:23:00.255Z,31.10
2022-08-17T07:25:30.713Z,31.10
2022-08-17T07:28:06.033Z,31.10
2022-08-17T07:30:51.948Z,31.20
2022-08-17T07:33:30.936Z,31.20
2022-08-17T07:35:59.296Z,31.30
2022-08-17T07:38:35.466Z,31.30
2022-08-17T07:41:10.887Z,31.30
2022-08-17T07:43:40.944Z,31.30
2022-08-17T07:46:40.949Z,31.30
2022-08-17T07:49:11.099Z,31.30
2022-08-17T07:51:55.404Z,31.30
2022-08-17T07:54:37.644Z,31.30
2022-08-17T07:57:13.666Z,31.40
2022-08-17T07:59:59.926Z,31.40
2022-08-17T08:02:41.374Z,31.40
2022-08-17T08:05:49.370Z,31.40
2022-08-17T08:08:42.161Z,31.40
2022-08-17T08:11:28.283Z,31.40
2022-08-17T08:13:55.306Z,31.50
2022-08-17T08:16:29.858Z,31.40
2022-08-17T08:19:00.859Z,31.50
2022-08-17T08:22:04.514Z,31.40
2022-08-17T08:25:18.589Z,31.50
2022-08-17T08:28:27.355Z,31.50
2022-08-17T08:31:24.526Z,31.50
2022-08-17T08:34:58.678Z,31.50
2022-08-17T08:37:35.547Z,31.50
2022-08-17T08:40:34.965Z,31.50
2022-08-17T08:43:13.746Z,31.50
2022-08-17T08:46:19.641Z,31.50
2022-08-17T08:49:12.515Z,31.60
2022-08-17T08:51:55.687Z,31.60
2022-08-17T08:54:44.312Z,31.70
2022-08-17T08:57:34.085Z,31.60
2022-08-17T09:00:23.003Z,31.70
2022-08-17T09:03:14.331Z,31.70
2022-08-17T09:06:38.532Z,31.80
2022-08-17T09:09:25.715Z,31.80
2022-08-17T09:12:21.240Z,31.80
2022-08-17T09:15:07.159Z,31.80
2022-08-17T09:18:08.873Z,31.80
2022-08-17T09:20:55.876Z,31.70
2022-08-17T09:23:49.655Z,31.60
2022-08-17T09:26:28.033Z,31.70
2022-08-17T09:29:02.517Z,31.70
2022-08-17T09:31:48.706Z,31.70
2022-08-17T09:34:28.188Z,31.70
2022-08-17T09:37:22.950Z,31.70
2022-08-17T09:40:30.482Z,31.70
2022-08-17T09:43:19.341Z,31.70
2022-08-17T09:45:57.875Z,31.70
2022-08-17T09:48:43.771Z,31.70
2022-08-17T09:51:50.273Z,31.70
2022-08-17T09:54:42.386Z,31.80
2022-08-17T09:57:44.052Z,31.80
2022-08-17T10:00:18.822Z,31.70
2022-08-17T10:03:34.360Z,31.70
2022-08-17T10:06:21.795Z,31.70
2022-08-17T10:09:12.374Z,31.80
2022-08-17T10:12:11.105Z,31.70
2022-08-17T10:15:25.511Z,31.70
2022-08-17T10:18:38.890Z,31.70
2022-08-17T10:21:32.087Z,31.70
2022-08-17T10:25:20.693Z,31.70
2022-08-17T10:27:52.717Z,31.70
2022-08-17T10:30:26.815Z,31.60
2022-08-17T10:33:02.776Z,31.60
2022-08-17T10:35:56.106Z,31.60
2022-08-17T10:38:25.373Z,31.60
2022-08-17T10:40:57.261Z,31.60
2022-08-17T10:44:37.462Z,31.60
2022-08-17T10:47:15.010Z,31.60
2022-08-17T10:49:53.668Z,31.50
2022-08-17T10:52:24.827Z,31.60
2022-08-17T10:54:58.264Z,31.50
2022-08-17T10:57:33.877Z,31.50
2022-08-17T11:00:02.538Z,31.40
2022-08-17T11:02:41.671Z,31.40
2022-08-17T11:05:52.215Z,31.40
2022-08-17T11:08:34.067Z,31.50
2022-08-17T11:11:45.414Z,31.50
2022-08-17T11:15:03.212Z,31.40
2022-08-17T11:18:01.860Z,31.40
2022-08-17T11:20:38.180Z,31.40
2022-08-17T11:23:37.809Z,31.30
2022-08-17T11:26:26.165Z,31.30
2022-08-17T11:29:01.468Z,31.30
2022-08-17T11:31:40.408Z,31.30
2022-08-17T11:34:20.111Z,31.30
2022-08-17T11:37:15.182Z,31.30
2022-08-17T11:40:35.418Z,31.20
2022-08-17T11:43:25.410Z,31.30
2022-08-17T11:45:52.562Z,31.20
2022-08-17T11:48:58.143Z,31.20
2022-08-17T11:52:01.167Z,31.20
2022-08-17T11:54:33.266Z,31.20
2022-08-17T11:57:26.514Z,31.20
2022-08-17T12:00:07.548Z,31.20
2022-08-17T12:02:48.267Z,31.30
2022-08-17T12:05:16.868Z,31.20
2022-08-17T12:08:05.738Z,31.20
2022-08-17T12:10:37.024Z,31.40
2022-08-17T12:13:15.728Z,31.40
2022-08-17T12:15:49.595Z,31.40
2022-08-17T12:18:39.468Z,31.50
2022-08-17T12:21:54.991Z,31.50
2022-08-17T12:25:06.028Z,31.60
2022-08-17T12:28:01.353Z,31.60
2022-08-17T12:32:58.606Z,31.60
2022-08-17T12:35:36.044Z,31.60
2022-08-17T12:38:32.091Z,31.70
2022-08-17T12:40:58.333Z,31.70
2022-08-17T12:43:31.166Z,31.80
2022-08-17T12:46:15.288Z,31.80
2022-08-17T12:48:59.267Z,31.70
2022-08-17T12:51:29.138Z,31.80
2022-08-17T12:53:56.767Z,31.80
2022-08-17T12:56:26.243Z,31.50
2022-08-17T12:58:54.447Z,31.90
2022-08-17T13:03:56.194Z,31.90
2022-08-17T13:06:34.241Z,31.90
2022-08-17T13:09:18.482Z,31.90
2022-08-17T13:11:58.364Z,31.90
2022-08-17T13:14:26.481Z,31.90
2022-08-17T13:17:01.837Z,31.90
2022-08-17T13:19:40.332Z,31.90
2022-08-17T13:22:12.906Z,31.80
2022-08-17T13:24:59.191Z,31.90
2022-08-17T13:27:29.236Z,31.90
2022-08-17T13:30:02.257Z,31.90
2022-08-17T13:32:43.721Z,31.80
2022-08-17T13:35:41.086Z,31.80
2022-08-17T13:38:13.574Z,31.70
2022-08-17T13:40:53.152Z,31.80
2022-08-17T13:43:44.428Z,31.90
2022-08-17T13:46:26.612Z,31.90
2022-08-17T13:49:12.013Z,31.90
2022-08-17T13:51:46.237Z,31.90
2022-08-17T13:54:34.519Z,31.90
2022-08-17T13:57:17.065Z,32.00
2022-08-17T13:59:55.887Z,31.90
2022-08-17T14:02:27.227Z,31.90
2022-08-17T14:04:56.507Z,32.00
2022-08-17T14:07:33.696Z,32.00
2022-08-17T14:10:14.059Z,32.00
2022-08-17T14:12:44.143Z,32.10
2022-08-17T14:15:15.611Z,31.80
2022-08-17T14:17:46.142Z,32.10
2022-08-17T14:20:14.362Z,32.10
2022-08-17T14:22:49.476Z,32.20
2022-08-17T14:25:24.787Z,32.20
2022-08-17T14:27:54.161Z,32.10
2022-08-17T14:30:27.000Z,32.10
2022-08-17T14:32:58.010Z,32.00
2022-08-17T14:35:27.855Z,32.10
2022-08-17T14:37:56.105Z,32.10
2022-08-17T14:40:25.266Z,32.10
2022-08-17T14:42:55.496Z,32.10
2022-08-17T14:45:29.653Z,32.10
2022-08-17T14:48:04.156Z,32.10
2022-08-17T14:50:32.131Z,32.00
2022-08-17T14:53:04.594Z,32.00
2022-08-17T14:55:32.606Z,32.10
2022-08-17T14:58:04.196Z,32.00
2022-08-17T15:00:32.258Z,32.00
2022-08-17T15:03:02.055Z,32.00
2022-08-17T15:05:34.335Z,31.90
2022-08-17T15:08:06.262Z,32.00
2022-08-17T15:10:33.557Z,32.00
2022-08-17T15:13:00.880Z,32.00
2022-08-17T15:15:29.096Z,32.00
2022-08-17T15:20:29.611Z,32.10
2022-08-17T15:22:59.825Z,32.20
2022-08-17T15:25:32.115Z,32.20
2022-08-17T15:28:00.901Z,32.20
2022-08-17T15:30:29.149Z,32.30
2022-08-17T15:32:58.590Z,32.20
2022-08-17T15:35:31.229Z,32.30
2022-08-17T15:38:11.574Z,32.30
2022-08-17T15:40:51.052Z,32.30
2022-08-17T15:43:33.933Z,32.30
2022-08-17T15:46:12.156Z,32.30
2022-08-17T15:48:42.344Z,32.40
2022-08-17T15:51:20.497Z,32.40
2022-08-17T15:53:52.233Z,32.30
2022-08-17T15:56:19.997Z,32.40
2022-08-17T15:58:48.671Z,32.40
2022-08-17T16:03:14.687Z,32.50
2022-08-17T16:04:29.779Z,32.40
2022-08-17T16:06:57.090Z,32.50
2022-08-17T16:09:24.143Z,32.50
2022-08-17T16:14:22.646Z,32.50
2022-08-17T16:16:51.106Z,32.50
2022-08-17T16:19:18.103Z,32.50
2022-08-17T16:21:45.188Z,32.50
2022-08-17T16:24:13.257Z,32.40
2022-08-17T16:26:42.646Z,32.50
2022-08-17T16:29:10.191Z,32.50
2022-08-17T16:31:37.865Z,32.50
2022-08-17T16:34:17.388Z,32.40
2022-08-17T16:36:55.598Z,32.40
2022-08-17T16:39:26.310Z,32.40
2022-08-17T16:41:53.563Z,32.40
2022-08-17T16:44:21.929Z,32.30
2022-08-17T16:46:50.350Z,32.20
2022-08-17T16:49:24.498Z,32.20
2022-08-17T16:52:10.590Z,32.20
2022-08-17T16:54:43.816Z,32.10
2022-08-17T16:57:13.400Z,32.10
2022-08-17T16:59:44.883Z,32.10
2022-08-17T17:02:17.137Z,32.00
2022-08-17T17:05:00.024Z,32.00
2022-08-17T17:07:46.167Z,32.00
2022-08-17T17:10:20.042Z,32.00
2022-08-17T17:13:02.368Z,32.00
2022-08-17T17:15:51.415Z,31.90
2022-08-17T17:18:36.570Z,31.90
2022-08-17T17:21:06.464Z,31.80
2022-08-17T17:23:49.844Z,31.80
2022-08-17T17:26:47.068Z,31.90
2022-08-17T17:29:57.125Z,31.80
2022-08-17T17:32:51.068Z,31.80
2022-08-17T17:35:43.749Z,31.80
2022-08-17T17:38:49.866Z,31.70
2022-08-17T17:41:29.077Z,31.70
2022-08-17T17:44:30.135Z,31.70
2022-08-17T17:47:01.623Z,31.70
2022-08-17T17:49:35.413Z,31.50
2022-08-17T17:52:24.051Z,31.60
2022-08-17T17:54:56.992Z,31.60
2022-08-17T17:57:55.777Z,31.50
2022-08-17T18:00:26.116Z,31.50
2022-08-17T18:03:21.052Z,31.50
2022-08-17T18:06:32.251Z,31.50
2022-08-17T18:09:11.184Z,31.50
2022-08-17T18:12:13.097Z,31.50
2022-08-17T18:15:51.710Z,31.40
2022-08-17T18:18:19.047Z,31.40
2022-08-17T18:20:55.823Z,31.50
2022-08-17T18:23:27.971Z,31.50
2022-08-17T18:25:57.101Z,31.40
2022-08-17T18:28:36.381Z,31.30
2022-08-17T18:31:17.531Z,31.40
2022-08-17T18:33:50.764Z,31.40
2022-08-17T18:36:36.428Z,31.40
2022-08-17T18:39:26.476Z,31.30
2022-08-17T18:41:58.988Z,31.40
2022-08-17T18:44:45.993Z,31.30
2022-08-17T18:47:23.020Z,31.30
2022-08-17T18:50:01.996Z,31.30
2022-08-17T18:52:34.355Z,31.30
2022-08-17T18:55:13.499Z,31.30
2022-08-17T18:57:52.558Z,31.30
2022-08-17T19:00:45.594Z,31.30
2022-08-17T19:03:22.740Z,31.30
2022-08-17T19:06:17.514Z,31.30
2022-08-17T19:08:44.541Z,31.30
2022-08-17T19:11:23.979Z,31.20
2022-08-17T19:14:08.001Z,31.30
2022-08-17T19:16:51.224Z,31.20
2022-08-17T19:19:35.621Z,31.20
2022-08-17T19:22:34.976Z,31.20
2022-08-17T19:25:31.692Z,31.20
2022-08-17T19:28:22.372Z,31.20
2022-08-17T19:30:56.579Z,31.20
2022-08-17T19:33:24.470Z,31.20
2022-08-17T19:36:26.162Z,31.10
2022-08-17T19:39:21.295Z,31.20
2022-08-17T19:42:28.809Z,31.20
2022-08-17T19:45:18.222Z,31.20
2022-08-17T19:48:13.549Z,31.20
2022-08-17T19:51:09.217Z,31.20
2022-08-17T19:54:15.085Z,31.20
2022-08-17T19:57:02.846Z,31.20
2022-08-17T19:59:48.899Z,31.20
2022-08-17T20:02:21.117Z,31.20
2022-08-17T20:04:50.860Z,31.20
2022-08-17T20:07:28.820Z,31.20
2022-08-17T20:10:08.016Z,31.20
2022-08-17T20:12:39.975Z,31.20
2022-08-17T20:15:17.951Z,31.20
2022-08-17T20:17:47.678Z,31.30
2022-08-17T20:20:23.366Z,31.20
2022-08-17T20:23:28.701Z,31.30
2022-08-17T20:26:26.889Z,31.20
2022-08-17T20:29:16.030Z,31.30
2022-08-17T20:31:55.171Z,31.30
2022-08-17T20:34:33.448Z,31.20
2022-08-17T20:37:15.313Z,31.20
2022-08-17T20:40:05.615Z,31.20
2022-08-17T20:42:34.471Z,31.10
2022-08-17T20:45:21.273Z,31.20
2022-08-17T20:48:22.467Z,31.20
2022-08-17T20:50:57.034Z,31.10
2022-08-17T20:53:54.756Z,31.20
2022-08-17T20:56:43.718Z,31.20
2022-08-17T20:59:26.044Z,31.20
2022-08-17T21:02:18.716Z,31.20
2022-08-17T21:04:54.797Z,31.10
2022-08-17T21:07:43.176Z,31.10
2022-08-17T21:10:25.762Z,31.10
2022-08-17T21:13:16.535Z,31.20
2022-08-17T21:16:07.604Z,31.10
2022-08-17T21:18:56.709Z,31.10
2022-08-17T21:21:38.386Z,31.10
2022-08-17T21:24:35.653Z,31.10
2022-08-17T21:27:29.063Z,31.10
2022-08-17T21:30:02.088Z,31.10
2022-08-17T21:32:40.437Z,31.10
2022-08-17T21:35:22.821Z,31.10
2022-08-17T21:38:02.454Z,31.10
2022-08-17T21:40:34.047Z,31.10
2022-08-17T21:43:24.553Z,31.10
2022-08-17T21:46:25.057Z,31.10
2022-08-17T21:48:57.183Z,31.10
2022-08-17T21:51:28.909Z,31.10
2022-08-17T21:54:05.027Z,31.10
2022-08-17T21:56:40.634Z,31.10
2022-08-17T21:59:19.856Z,31.00
2022-08-17T22:02:03.945Z,31.10
2022-08-17T22:04:41.518Z,31.10
2022-08-17T22:07:13.717Z,31.00
2022-08-17T22:09:42.506Z,31.00
2022-08-17T22:12:16.163Z,31.00
2022-08-17T22:15:07.211Z,31.00
2022-08-17T22:17:46.437Z,31.00
2022-08-17T22:20:19.302Z,31.00
2022-08-17T22:23:04.896Z,30.90
2022-08-17T22:25:37.467Z,31.00
2022-08-17T22:28:11.519Z,30.90
2022-08-17T22:31:14.662Z,31.00
2022-08-17T22:33:46.906Z,31.00
2022-08-17T22:36:38.962Z,31.00
2022-08-17T22:39:08.735Z,31.00
2022-08-17T22:41:50.879Z,30.90
2022-08-17T22:44:30.105Z,30.90
2022-08-17T22:47:11.413Z,30.90
2022-08-17T22:49:53.584Z,30.90
2022-08-17T22:53:04.104Z,30.90
2022-08-17T22:55:52.275Z,30.90
2022-08-17T22:58:42.815Z,30.90
2022-08-17T23:01:33.291Z,30.90
2022-08-17T23:04:03.991Z,30.90
2022-08-17T23:06:33.767Z,30.90
2022-08-17T23:09:04.008Z,30.80
2022-08-17T23:11:49.757Z,30.80
2022-08-17T23:14:20.242Z,30.80
2022-08-17T23:16:50.226Z,30.70
2022-08-17T23:19:21.491Z,30.70
2022-08-17T23:21:50.983Z,30.80
2022-08-17T23:24:28.278Z,30.70
2022-08-17T23:26:58.087Z,30.70
2022-08-17T23:29:29.325Z,30.70
2022-08-17T23:31:59.908Z,30.70
2022-08-17T23:34:28.599Z,30.70
2022-08-17T23:36:57.004Z,30.70
2022-08-17T23:39:28.099Z,30.60
2022-08-17T23:42:00.858Z,30.70
2022-08-17T23:44:28.987Z,30.70
2022-08-17T23:46:56.864Z,30.70
2022-08-17T23:49:25.046Z,30.70
2022-08-17T23:51:54.814Z,30.70
2022-08-17T23:54:35.046Z,30.70
2022-08-17T23:57:04.713Z,30.70
2022-08-17T23:59:32.901Z,30.70
